Time;durP1;ratioP1;P1;durP2;ratioP2;P2;SDS_P1;SDS_P2;PMS_P1;PMS_P2;Temp;Humidity;BMP_temperature;BMP_pressure;BME280_temperature;BME280_humidity;BME280_pressure;Samples;Min_cycle;Max_cycle;Signal;HPM_P1;HPM_P2
2022/12/11 00:04:59;;;;;;;55.70;23.90;;;;;;;-0.55;98.01;97494.48;422250;1287;109872;-38
2022/12/11 00:15:05;;;;;;;51.60;21.20;;;;;;;-0.59;98.13;97490.57;422183;1294;107953;-39
2022/12/11 00:25:13;;;;;;;56.60;23.70;;;;;;;-0.57;98.12;97496.46;422227;1295;97378;-38
2022/12/11 00:35:20;;;;;;;60.50;23.00;;;;;;;-0.58;98.05;97497.73;422166;1287;109423;-39
2022/12/11 00:45:27;;;;;;;66.40;27.30;;;;;;;-0.59;98.01;97474.56;422091;1298;97462;-38
2022/12/11 00:55:38;;;;;;;56.00;24.90;;;;;;;-0.75;98.32;97452.13;421976;1288;110683;-38
2022/12/11 01:05:53;;;;;;;55.70;22.80;;;;;;;-0.79;98.26;97445.14;422676;1289;108218;-37
2022/12/11 01:16:05;;;;;;;47.90;23.90;;;;;;;-0.82;98.37;97444.05;422091;1287;97876;-39
2022/12/11 01:26:14;;;;;;;58.90;26.00;;;;;;;-0.83;98.58;97443.45;422060;1287;110565;-39
2022/12/11 01:36:23;;;;;;;63.70;26.70;;;;;;;-0.84;98.52;97453.98;421989;1288;107839;-39
2022/12/11 01:46:30;;;;;;;60.20;24.10;;;;;;;-0.98;98.65;97445.02;422196;1295;97895;-38
2022/12/11 01:56:41;;;;;;;73.70;30.00;;;;;;;-0.92;98.71;97431.08;421952;1287;111704;-38
2022/12/11 02:06:50;;;;;;;59.00;24.50;;;;;;;-0.92;98.40;97436.35;421912;1288;106538;-37
2022/12/11 02:16:55;;;;;;;;;;;;;;;-0.94;98.29;97435.61;422164;1295;97866;-39
2022/12/11 02:27:09;;;;;;;61.00;24.60;;;;;;;-0.99;98.36;97427.12;422949;1264;107696;-38
2022/12/11 02:37:19;;;;;;;56.50;26.40;;;;;;;-1.02;98.52;97423.55;421782;1295;332337;-38
2022/12/11 02:47:27;;;;;;;;;;;;;;;-1.01;98.42;97422.36;422499;1294;110227;-38
2022/12/11 02:57:39;;;;;;;77.50;31.20;;;;;;;-1.14;98.39;97416.65;422200;1288;122671;-38
2022/12/11 03:18:00;;;;;;;62.70;26.40;;;;;;;-1.10;98.39;97406.95;422153;1294;109477;-39
2022/12/11 03:28:07;;;;;;;46.20;21.50;;;;;;;-1.10;98.34;97407.52;422160;1287;97920;-39
2022/12/11 03:38:15;;;;;;;44.80;19.50;;;;;;;-1.10;98.26;97407.48;422177;1286;109015;-38
2022/12/11 03:48:24;;;;;;;58.00;24.50;;;;;;;-1.15;98.40;97415.13;422122;1296;108577;-39
2022/12/11 03:58:32;;;;;;;61.70;26.60;;;;;;;-1.22;98.49;97422.71;422243;1294;96674;-39
2022/12/11 04:08:39;;;;;;;51.40;23.70;;;;;;;-1.28;98.20;97412.23;422165;1291;109503;-38
2022/12/11 04:29:11;;;;;;;52.20;21.80;;;;;;;-1.31;98.47;97385.58;422162;1286;97752;-38
2022/12/11 04:39:18;;;;;;;54.00;26.10;;;;;;;-1.24;98.69;97379.00;422203;1287;107519;-39
2022/12/11 04:49:26;;;;;;;77.50;30.40;;;;;;;-1.22;98.21;97382.80;422140;1288;97480;-38
2022/12/11 04:59:33;;;;;;;67.10;27.20;;;;;;;-1.35;98.46;97383.30;422427;1294;110133;-37
2022/12/11 05:09:40;;;;;;;67.50;31.00;;;;;;;-1.42;98.18;97376.91;422210;1287;108327;-39
2022/12/11 05:29:55;;;;;;;50.40;26.10;;;;;;;-1.51;98.32;97361.42;422290;1298;109348;-38
2022/12/11 06:00:15;;;;;;;57.30;24.90;;;;;;;-1.70;98.38;97352.14;422257;1296;97506;-38
2022/12/11 06:10:22;;;;;;;48.50;23.00;;;;;;;-1.71;98.21;97348.02;422227;1292;106837;-38
2022/12/11 06:20:32;;;;;;;52.30;25.60;;;;;;;-1.70;98.05;97352.77;422113;1287;97499;-40
2022/12/11 06:30:39;;;;;;;49.50;24.50;;;;;;;-1.68;98.20;97358.61;422214;1299;108035;-39
2022/12/11 06:40:54;;;;;;;38.00;20.00;;;;;;;-1.61;98.34;97364.34;422236;1296;97866;-39
2022/12/11 06:51:04;;;;;;;55.40;25.60;;;;;;;-1.70;98.19;97368.45;422173;1297;110555;-38
2022/12/11 07:01:14;;;;;;;46.30;23.80;;;;;;;-1.85;98.03;97373.42;422213;1297;112762;-38
2022/12/11 07:11:22;;;;;;;45.40;24.20;;;;;;;-1.87;98.01;97376.89;422216;1296;97888;-39
2022/12/11 07:21:29;;;;;;;44.10;23.70;;;;;;;-1.84;97.97;97374.03;422249;1296;110794;-39
2022/12/11 07:31:37;;;;;;;44.50;22.30;;;;;;;-1.83;97.94;97366.44;422117;1287;108749;-39
2022/12/11 07:41:45;;;;;;;42.30;21.60;;;;;;;-1.88;97.83;97366.54;422197;1289;97876;-39
2022/12/11 07:51:53;;;;;;;60.10;28.20;;;;;;;-1.98;97.80;97359.43;422341;1296;107416;-39
2022/12/11 08:02:00;;;;;;;46.20;23.80;;;;;;;-2.10;97.82;97373.67;422208;1286;97173;-39
2022/12/11 08:12:05;;;;;;;42.00;24.40;;;;;;;-2.15;97.59;97381.29;422301;1296;110538;-39
2022/12/11 08:32:19;;;;;;;43.70;24.20;;;;;;;-2.11;97.41;97389.00;422148;1289;97765;-39
2022/12/11 08:42:27;;;;;;;41.10;20.20;;;;;;;-2.22;97.42;97379.17;422228;1287;110285;-39
2022/12/11 08:52:34;;;;;;;48.20;25.50;;;;;;;-2.32;97.63;97387.27;422306;1288;96679;-39
2022/12/11 09:02:41;;;;;;;42.60;22.10;;;;;;;-2.35;97.68;97386.45;422179;1296;97562;-38
2022/12/11 09:12:49;;;;;;;34.10;18.50;;;;;;;-2.20;97.45;97387.05;422373;1290;110151;-40
2022/12/11 09:22:57;;;;;;;35.10;19.10;;;;;;;-2.09;97.36;97377.64;422193;1288;107396;-40
2022/12/11 09:33:04;;;;;;;34.70;18.20;;;;;;;-2.01;97.04;97369.25;422169;1292;97864;-40
2022/12/11 09:43:13;;;;;;;54.70;25.00;;;;;;;-1.96;97.23;97359.10;422199;1297;108730;-40
2022/12/11 09:53:18;;;;;;;57.00;24.30;;;;;;;-1.96;97.01;97349.81;422208;1296;97935;-38
2022/12/11 10:03:34;;;;;;;44.20;22.10;;;;;;;-1.87;96.65;97342.52;422314;1298;109132;-39
2022/12/11 10:13:39;;;;;;;41.40;20.20;;;;;;;-1.79;96.90;97325.93;422254;1289;106348;-39
2022/12/11 10:23:48;;;;;;;37.10;19.60;;;;;;;-1.72;96.61;97321.54;422214;1294;96624;-39
2022/12/11 10:44:12;;;;;;;37.40;20.40;;;;;;;-1.87;96.59;97319.27;422145;1296;97879;-40
2022/12/11 10:54:28;;;;;;;46.20;21.90;;;;;;;-1.76;96.30;97312.45;422053;1287;110583;-40
2022/12/11 11:04:36;;;;;;;37.30;19.80;;;;;;;-1.77;96.27;97304.95;422123;1288;108784;-39
2022/12/11 11:14:43;;;;;;;66.90;31.00;;;;;;;-1.76;96.48;97291.29;422202;1296;97892;-39
2022/12/11 11:35:06;;;;;;;46.00;23.50;;;;;;;-1.74;96.05;97265.46;422096;1288;107669;-39
2022/12/11 11:45:10;;;;;;;39.60;19.40;;;;;;;-1.73;95.79;97254.51;422106;1287;97368;-38
2022/12/11 11:55:15;;;;;;;44.10;23.10;;;;;;;-1.88;95.53;97241.63;422119;1287;109470;-40
2022/12/11 12:05:33;;;;;;;81.60;36.30;;;;;;;-1.98;95.78;97242.98;422201;1287;109319;-39
2022/12/11 12:15:50;;;;;;;48.90;27.40;;;;;;;-2.01;95.84;97240.77;422069;1291;97792;-38
2022/12/11 12:26:06;;;;;;;41.10;24.50;;;;;;;-1.99;95.58;97252.30;422142;1283;110051;-40
2022/12/11 12:36:16;;;;;;;37.60;23.20;;;;;;;-2.08;95.24;97244.14;422150;1279;109928;-40
2022/12/11 12:46:22;;;;;;;50.50;26.00;;;;;;;-2.23;95.30;97231.06;422175;1296;96996;-39
2022/12/11 12:56:32;;;;;;;48.20;26.20;;;;;;;-2.53;95.23;97236.54;422288;1288;110047;-40
2022/12/11 13:06:41;;;;;;;37.60;21.00;;;;;;;-2.63;94.90;97233.19;421998;1287;107721;-41
2022/12/11 13:16:51;;;;;;;43.40;25.60;;;;;;;-2.66;95.04;97228.20;422225;1281;97548;-39
2022/12/11 13:27:08;;;;;;;43.30;26.50;;;;;;;-2.56;95.08;97249.09;422197;1296;108761;-39
2022/12/11 13:37:20;;;;;;;56.20;29.90;;;;;;;-2.53;95.18;97252.23;422155;1287;107529;-38
2022/12/11 13:47:29;;;;;;;47.30;27.10;;;;;;;-2.62;95.37;97249.98;422074;1296;97869;-39
2022/12/11 13:57:46;;;;;;;48.90;29.30;;;;;;;-2.61;95.15;97253.27;422231;1298;109550;-41
2022/12/11 14:07:57;;;;;;;45.30;29.00;;;;;;;-2.60;95.06;97257.73;422027;1287;108368;-39
2022/12/11 14:18:04;;;;;;;44.80;26.80;;;;;;;-2.64;94.89;97260.84;422168;1281;97911;-40
2022/12/11 14:38:18;;;;;;;;;;;;;;;-2.87;95.25;97275.48;421983;1288;384709;-39
2022/12/11 14:48:28;;;;;;;49.00;28.80;;;;;;;-2.90;95.08;97268.38;422156;1287;109786;-41
2022/12/11 14:58:43;;;;;;;65.40;36.30;;;;;;;-2.88;95.02;97268.48;422049;1288;108280;-39
2022/12/11 15:08:50;;;;;;;57.10;30.10;;;;;;;-2.84;95.03;97274.94;422199;1295;97532;-39
2022/12/11 15:18:58;;;;;;;68.50;33.60;;;;;;;-2.82;94.91;97265.98;422174;1287;109125;-39
2022/12/11 15:29:05;;;;;;;82.70;39.20;;;;;;;-2.91;94.96;97264.38;422298;1294;97864;-40
2022/12/11 15:39:13;;;;;;;63.00;33.60;;;;;;;-2.99;94.95;97267.61;422239;1287;97410;-38
2022/12/11 15:59:27;;;;;;;60.80;30.00;;;;;;;-3.02;95.01;97269.05;422151;1287;97928;-39
2022/12/11 16:09:34;;;;;;;61.30;33.00;;;;;;;-2.97;95.04;97274.84;422305;1288;111630;-39
2022/12/11 16:19:42;;;;;;;84.40;39.00;;;;;;;-2.96;95.16;97274.02;422285;1286;108084;-39
2022/12/11 16:29:50;;;;;;;86.00;39.70;;;;;;;-3.03;94.93;97269.50;422293;1296;97027;-39
2022/12/11 16:39:55;;;;;;;64.10;32.80;;;;;;;-3.06;95.02;97271.89;422136;1296;109897;-38
2022/12/11 16:50:02;;;;;;;65.50;35.00;;;;;;;-3.02;94.88;97276.64;422125;1285;108135;-38
2022/12/11 17:00:12;;;;;;;63.80;31.10;;;;;;;-2.95;94.99;97287.64;422312;1281;97876;-39
2022/12/11 17:10:19;;;;;;;63.70;33.60;;;;;;;-2.89;94.92;97286.05;422149;1287;106996;-39
2022/12/11 17:20:26;;;;;;;80.80;39.30;;;;;;;-2.91;95.12;97293.54;422275;1295;96666;-39
2022/12/11 17:30:34;;;;;;;70.70;35.50;;;;;;;-2.99;95.11;97298.33;422312;1288;97860;-39
2022/12/11 17:50:48;;;;;;;64.00;32.10;;;;;;;-3.00;94.73;97300.83;422377;1293;106611;-39
2022/12/11 18:11:04;;;;;;;77.80;36.10;;;;;;;-3.04;94.81;97302.98;422168;1295;108227;-39
2022/12/11 18:21:15;;;;;;;79.40;38.00;;;;;;;-3.20;95.01;97299.67;422262;1290;96619;-38
2022/12/11 18:31:23;;;;;;;54.70;28.40;;;;;;;-3.25;94.76;97302.86;422208;1280;97976;-38
2022/12/11 18:41:31;;;;;;;45.20;25.20;;;;;;;-3.25;94.60;97303.54;422235;1287;107889;-39
2022/12/11 19:01:46;;;;;;;58.20;30.20;;;;;;;-3.16;94.99;97300.41;422154;1295;109537;-40
2022/12/11 19:11:54;;;;;;;66.90;31.60;;;;;;;-3.32;94.66;97304.85;422255;1298;108558;-39
2022/12/11 19:22:02;;;;;;;100.20;42.90;;;;;;;-3.43;94.69;97305.27;422309;1287;97905;-38
2022/12/11 19:42:16;;;;;;;63.90;40.10;;;;;;;-3.36;94.44;97281.88;422165;1295;108377;-40
2022/12/11 19:52:23;;;;;;;53.40;32.20;;;;;;;-3.25;94.52;97282.34;422260;1280;97908;-39
2022/12/11 20:02:31;;;;;;;69.50;35.70;;;;;;;-3.20;94.67;97282.45;422226;1294;108434;-38
2022/12/11 20:12:39;;;;;;;78.10;37.40;;;;;;;-3.23;94.86;97275.88;422216;1295;97147;-39
2022/12/11 20:22:46;;;;;;;82.50;39.70;;;;;;;-3.31;94.60;97267.30;422332;1294;97479;-38
2022/12/11 20:32:54;;;;;;;65.00;30.30;;;;;;;-3.39;94.62;97263.71;422211;1290;110829;-40
2022/12/11 20:43:01;;;;;;;90.80;41.80;;;;;;;-3.39;94.51;97262.71;422256;1290;110180;-39
2022/12/11 20:53:08;;;;;;;58.70;31.30;;;;;;;-3.33;94.54;97259.85;422006;1294;97873;-38
2022/12/11 21:03:16;;;;;;;47.40;26.60;;;;;;;-3.26;94.49;97250.88;422325;1280;107815;-38
2022/12/11 21:13:23;;;;;;;89.40;39.20;;;;;;;-3.23;94.72;97250.36;422205;1288;97491;-39
2022/12/11 21:23:30;;;;;;;82.10;38.40;;;;;;;-3.35;94.52;97249.14;422271;1296;96658;-40
2022/12/11 21:33:38;;;;;;;71.20;30.80;;;;;;;-3.48;94.51;97255.66;422361;1288;108981;-39
2022/12/11 21:43:46;;;;;;;69.70;33.90;;;;;;;-3.54;94.53;97253.61;422268;1297;107579;-38
2022/12/11 21:54:16;;;;;;;77.20;40.60;;;;;;;-3.45;94.44;97261.03;422143;1298;97603;-39
2022/12/11 22:04:22;;;;;;;63.60;34.00;;;;;;;-3.34;94.47;97266.48;422335;1290;109431;-39
2022/12/11 22:14:30;;;;;;;76.90;38.40;;;;;;;-3.24;94.72;97268.77;422348;1292;108142;-40
2022/12/11 22:24:37;;;;;;;103.20;44.40;;;;;;;-3.22;94.47;97260.42;422221;1296;97857;-39
2022/12/11 22:34:44;;;;;;;107.30;43.50;;;;;;;-3.24;94.73;97258.38;422323;1298;110484;-39
2022/12/11 22:44:52;;;;;;;164.40;61.50;;;;;;;-3.26;94.81;97250.42;422194;1294;109322;-41
2022/12/11 22:54:59;;;;;;;109.70;43.30;;;;;;;-3.31;94.74;97247.34;422253;1288;97858;-39
2022/12/11 23:05:04;;;;;;;82.90;39.40;;;;;;;-3.25;94.71;97249.18;422330;1287;110008;-39
2022/12/11 23:15:12;;;;;;;90.50;43.50;;;;;;;-3.09;94.41;97242.92;422174;1302;106893;-39
2022/12/11 23:25:20;;;;;;;56.60;27.20;;;;;;;-2.94;94.70;97233.86;422224;1296;97624;-39
2022/12/11 23:35:28;;;;;;;84.80;36.10;;;;;;;-2.91;94.80;97242.52;422265;1295;107691;-39
2022/12/11 23:45:35;;;;;;;71.60;32.00;;;;;;;-2.96;94.76;97232.20;422327;1294;96761;-41
2022/12/11 23:55:44;;;;;;;73.40;34.30;;;;;;;-3.02;94.71;97236.74;422191;1295;97879;-39
